Scio, Michigan
Current Conditions -  °F | °C
As of 5:53 PM on Friday 28 Nov 2014 (Local Time) from KARB Reporting Station
Light Snow Light Snow  
Wind Chill: 18°   Ceiling: 3200
Heat Index: 25°   Visibility: 3mi
Dew Point: 21°   Wind: 6mph
Humidity: 85%   Direction: 160°SSE
Pressure: 30.15"   Gusts: NA
Location:  42.3528°N, 83.8974°W
Report Text: KARB 282253Z 16005KT 3SM -SN BR BKN032 OVC070 M04/M06 A3015 RMK AO2 SLP223 P0000 T10391061
Loading
Personal Weather Stations






























Interactive Weather Map New forecast layout! Learn more

10-Day Weather Forecast

Advertisements
Track Severe Weather on mobile